createdAt,value
2022-12-06T00:02:40.405Z,-10.35
2022-12-06T00:08:02.561Z,-10.21
2022-12-06T00:13:24.532Z,-10.43
2022-12-06T00:18:47.558Z,-10.52
2022-12-06T00:24:15.742Z,-10.43
2022-12-06T00:29:37.971Z,-10.22
2022-12-06T00:35:00.501Z,-10.22
2022-12-06T00:40:22.381Z,-10.39
2022-12-06T00:45:45.209Z,-10.25
2022-12-06T00:51:06.940Z,-10.57
2022-12-06T00:56:29.291Z,-10.29
2022-12-06T01:01:51.607Z,-10.41
2022-12-06T01:07:13.550Z,-10.23
2022-12-06T01:12:35.493Z,-10.37
2022-12-06T01:17:57.272Z,-10.33
2022-12-06T01:23:19.029Z,-10.43
2022-12-06T01:28:41.070Z,-10.28
2022-12-06T01:34:03.098Z,-10.55
2022-12-06T01:39:25.400Z,-10.31
2022-12-06T01:44:51.382Z,-10.48
2022-12-06T01:50:22.891Z,-10.30
2022-12-06T01:55:45.022Z,-10.35
2022-12-06T02:01:09.985Z,-10.35
2022-12-06T02:06:32.971Z,-10.39
2022-12-06T02:11:54.961Z,-10.41
2022-12-06T02:17:53.622Z,-10.33
2022-12-06T02:23:39.601Z,-10.33
2022-12-06T02:29:24.496Z,-10.36
2022-12-06T02:35:07.021Z,-10.39
2022-12-06T02:40:44.392Z,-10.39
2022-12-06T02:46:08.361Z,-10.36
2022-12-06T02:51:33.532Z,-10.66
2022-12-06T02:56:56.021Z,-10.55
2022-12-06T03:02:17.984Z,-10.45
2022-12-06T03:07:48.295Z,-10.31
2022-12-06T03:13:26.135Z,-10.25
2022-12-06T03:19:00.705Z,-10.32
2022-12-06T03:24:23.894Z,-10.55
2022-12-06T03:29:52.692Z,-10.54
2022-12-06T03:35:21.523Z,-10.57
2022-12-06T03:40:52.178Z,-10.44
2022-12-06T03:46:21.011Z,-10.15
2022-12-06T03:51:45.295Z,-10.13
2022-12-06T03:57:07.281Z,-10.29
2022-12-06T04:02:29.162Z,-10.40
2022-12-06T04:07:51.011Z,-10.18
2022-12-06T04:13:18.210Z,-10.18
2022-12-06T04:18:41.572Z,-10.22
2022-12-06T04:24:03.652Z,-10.23
2022-12-06T04:29:43.572Z,-10.24
2022-12-06T04:35:24.344Z,-10.20
2022-12-06T04:40:48.857Z,-10.06
2022-12-06T04:46:13.261Z,-10.07
2022-12-06T04:51:35.791Z,-10.05
2022-12-06T04:56:58.821Z,-10.18
2022-12-06T05:02:21.723Z,-10.22
2022-12-06T05:07:46.320Z,-10.19
2022-12-06T05:13:09.981Z,-10.18
2022-12-06T05:18:34.401Z,-10.17
2022-12-06T05:23:57.091Z,-10.19
2022-12-06T05:29:20.454Z,-10.15
2022-12-06T05:34:42.462Z,-10.10
2022-12-06T05:40:05.042Z,-10.13
2022-12-06T05:45:27.122Z,-10.14
2022-12-06T05:50:49.764Z,-10.05
2022-12-06T05:56:13.112Z,-10.03
2022-12-06T06:01:35.273Z,-10.10
2022-12-06T06:06:57.674Z,-9.90
2022-12-06T06:12:19.860Z,-9.87
2022-12-06T06:17:41.922Z,-10.08
2022-12-06T06:23:03.961Z,-9.96
2022-12-06T06:28:25.944Z,-9.95
2022-12-06T06:33:48.543Z,-9.98
2022-12-06T06:39:10.602Z,-9.86
2022-12-06T06:44:33.468Z,-9.97
2022-12-06T06:49:55.395Z,-9.97
2022-12-06T06:55:17.850Z,-9.96
2022-12-06T07:00:39.851Z,-9.73
2022-12-06T07:06:07.032Z,-9.75
2022-12-06T07:11:29.819Z,-9.66
2022-12-06T07:16:51.767Z,-9.50
2022-12-06T07:22:14.509Z,-9.44
2022-12-06T07:27:37.339Z,-9.41
2022-12-06T07:32:59.571Z,-9.38
2022-12-06T07:38:21.891Z,-9.33
2022-12-06T07:44:02.005Z,-9.41
2022-12-06T07:49:24.441Z,-9.32
2022-12-06T07:54:46.231Z,-9.27
2022-12-06T08:00:13.523Z,-9.15
2022-12-06T08:05:35.924Z,-9.07
2022-12-06T08:11:02.021Z,-8.93
2022-12-06T08:16:24.566Z,-8.91
2022-12-06T08:21:46.744Z,-8.82
2022-12-06T08:27:09.142Z,-8.71
2022-12-06T08:32:31.210Z,-8.74
2022-12-06T08:37:53.271Z,-8.80
2022-12-06T08:43:15.302Z,-8.64
2022-12-06T08:48:42.626Z,-8.60
2022-12-06T08:54:06.903Z,-8.63
2022-12-06T08:59:28.871Z,-8.58
2022-12-06T09:04:53.939Z,-8.59
2022-12-06T09:10:16.103Z,-8.49
2022-12-06T09:15:39.436Z,-8.44
2022-12-06T09:21:06.671Z,-8.31
2022-12-06T09:26:29.607Z,-8.35
2022-12-06T09:31:52.012Z,-8.32
2022-12-06T09:37:15.071Z,-8.20
2022-12-06T09:43:03.801Z,-8.12
2022-12-06T09:49:04.494Z,-8.00
2022-12-06T09:54:50.566Z,-7.96
2022-12-06T10:00:22.628Z,-7.93
2022-12-06T10:05:51.806Z,-7.83
2022-12-06T10:11:51.163Z,-7.87
2022-12-06T10:17:20.912Z,-7.86
2022-12-06T10:22:48.814Z,-7.80
2022-12-06T10:28:24.110Z,-7.77
2022-12-06T10:33:57.495Z,-7.63
2022-12-06T10:39:26.511Z,-7.56
2022-12-06T10:44:57.631Z,-7.61
2022-12-06T10:50:29.055Z,-7.48
2022-12-06T10:55:58.450Z,-7.59
2022-12-06T11:01:28.790Z,-7.48
2022-12-06T11:06:59.402Z,-7.50
2022-12-06T11:12:30.949Z,-7.43
2022-12-06T11:18:02.991Z,-7.45
2022-12-06T11:23:46.223Z,-7.46
2022-12-06T11:29:12.988Z,-7.46
2022-12-06T11:34:50.481Z,-7.42
2022-12-06T11:40:15.691Z,-7.40
2022-12-06T11:45:43.311Z,-7.41
2022-12-06T11:51:08.743Z,-7.53
2022-12-06T11:56:34.612Z,-7.55
2022-12-06T12:02:02.122Z,-7.64
2022-12-06T12:07:25.486Z,-7.79
2022-12-06T12:13:08.455Z,-7.86
2022-12-06T12:18:37.206Z,-7.76
2022-12-06T12:23:59.033Z,-7.77
2022-12-06T12:29:22.898Z,-7.78
2022-12-06T12:34:45.140Z,-7.78
2022-12-06T12:40:22.182Z,-7.84
2022-12-06T12:46:22.867Z,-7.76
2022-12-06T12:51:48.053Z,-7.82
2022-12-06T12:57:14.085Z,-7.78
2022-12-06T13:02:37.668Z,-7.86
2022-12-06T13:08:19.514Z,-7.93
2022-12-06T13:13:45.141Z,-7.77
2022-12-06T13:19:16.421Z,-7.68
2022-12-06T13:24:40.360Z,-7.75
2022-12-06T13:30:11.254Z,-7.67
2022-12-06T13:35:38.251Z,-7.79
2022-12-06T13:41:05.590Z,-7.65
2022-12-06T13:46:29.852Z,-7.73
2022-12-06T13:51:52.781Z,-7.78
2022-12-06T13:57:32.531Z,-7.64
2022-12-06T14:03:18.438Z,-7.60
2022-12-06T14:08:47.571Z,-7.71
2022-12-06T14:14:19.323Z,-7.73
2022-12-06T14:19:45.193Z,-7.63
2022-12-06T14:25:22.921Z,-7.60
2022-12-06T14:30:46.874Z,-7.56
2022-12-06T14:36:18.629Z,-7.70
2022-12-06T14:41:59.593Z,-7.72
2022-12-06T14:47:36.853Z,-7.74
2022-12-06T14:53:31.621Z,-7.62
2022-12-06T14:58:53.473Z,-7.74
2022-12-06T15:04:38.320Z,-7.71
2022-12-06T15:10:38.931Z,-7.97
2022-12-06T15:16:05.529Z,-7.86
2022-12-06T15:21:27.633Z,-7.79
2022-12-06T15:26:50.181Z,-7.84
2022-12-06T15:32:17.272Z,-7.87
2022-12-06T15:37:40.447Z,-7.99
2022-12-06T15:43:04.531Z,-7.95
2022-12-06T15:48:26.919Z,-8.01
2022-12-06T15:53:52.420Z,-7.99
2022-12-06T15:59:18.008Z,-8.02
2022-12-06T16:04:41.101Z,-8.15
2022-12-06T16:10:04.205Z,-8.12
2022-12-06T16:15:27.015Z,-8.22
2022-12-06T16:20:53.170Z,-8.18
2022-12-06T16:26:16.543Z,-8.04
2022-12-06T16:31:42.289Z,-8.22
2022-12-06T16:37:12.911Z,-8.04
2022-12-06T16:42:38.032Z,-8.25
2022-12-06T16:48:00.544Z,-8.13
2022-12-06T16:53:22.510Z,-8.22
2022-12-06T16:58:44.546Z,-8.18
2022-12-06T17:04:11.711Z,-8.18
2022-12-06T17:09:33.827Z,-8.25
2022-12-06T17:14:55.856Z,-8.28
2022-12-06T17:20:19.696Z,-8.23
2022-12-06T17:25:41.484Z,-8.26
2022-12-06T17:31:08.806Z,-8.23
2022-12-06T17:36:31.833Z,-8.25
2022-12-06T17:42:12.226Z,-8.41
2022-12-06T17:47:34.478Z,-8.32
2022-12-06T17:52:56.674Z,-8.38
2022-12-06T17:58:19.963Z,-8.39
2022-12-06T18:03:41.989Z,-8.47
2022-12-06T18:09:06.902Z,-8.38
2022-12-06T18:14:29.920Z,-8.43
2022-12-06T18:19:51.913Z,-8.44
2022-12-06T18:25:13.853Z,-8.54
2022-12-06T18:30:35.663Z,-8.54
2022-12-06T18:35:57.670Z,-8.59
2022-12-06T18:41:21.909Z,-8.55
2022-12-06T18:46:44.095Z,-8.58
2022-12-06T18:52:06.272Z,-8.75
2022-12-06T18:57:32.006Z,-8.64
2022-12-06T19:02:54.425Z,-8.67
2022-12-06T19:08:16.525Z,-8.76
2022-12-06T19:13:38.852Z,-8.75
2022-12-06T19:19:02.099Z,-8.82
2022-12-06T19:24:26.028Z,-8.78
2022-12-06T19:29:48.920Z,-8.85
2022-12-06T19:35:11.001Z,-8.85
2022-12-06T19:40:33.069Z,-8.92
2022-12-06T19:45:54.959Z,-8.87
2022-12-06T19:51:17.480Z,-8.88
2022-12-06T19:56:39.941Z,-8.98
2022-12-06T20:02:02.845Z,-8.95
2022-12-06T20:07:25.037Z,-8.99
2022-12-06T20:12:47.343Z,-9.08
2022-12-06T20:18:09.850Z,-9.08
2022-12-06T20:23:31.661Z,-9.18
2022-12-06T20:28:53.592Z,-9.18
2022-12-06T20:34:19.374Z,-9.22
2022-12-06T20:39:41.284Z,-9.32
2022-12-06T20:45:03.211Z,-9.32
2022-12-06T20:50:25.179Z,-9.28
2022-12-06T20:55:47.211Z,-9.26
2022-12-06T21:01:23.142Z,-9.33
2022-12-06T21:06:45.063Z,-9.43
2022-12-06T21:12:07.241Z,-9.54
2022-12-06T21:17:32.251Z,-9.46
2022-12-06T21:22:54.219Z,-9.54
2022-12-06T21:28:16.009Z,-9.59
2022-12-06T21:33:37.898Z,-9.82
2022-12-06T21:39:00.633Z,-9.82
2022-12-06T21:44:22.522Z,-9.87
2022-12-06T21:49:44.784Z,-9.80
2022-12-06T21:55:07.589Z,-9.81
2022-12-06T22:00:30.161Z,-9.72
2022-12-06T22:05:52.484Z,-9.74
2022-12-06T22:11:17.934Z,-9.86
2022-12-06T22:16:40.992Z,-9.73
2022-12-06T22:22:06.132Z,-9.78
2022-12-06T22:27:29.902Z,-9.64
2022-12-06T22:32:55.404Z,-9.77
2022-12-06T22:38:17.726Z,-9.83
2022-12-06T22:43:40.239Z,-9.94
2022-12-06T22:49:06.979Z,-9.90
2022-12-06T22:54:31.370Z,-9.83
2022-12-06T22:59:53.351Z,-9.78
2022-12-06T23:05:18.819Z,-9.87
2022-12-06T23:10:41.101Z,-9.80
2022-12-06T23:16:06.700Z,-9.79
2022-12-06T23:21:34.411Z,-9.75
2022-12-06T23:26:58.417Z,-9.78
2022-12-06T23:32:20.720Z,-9.66
2022-12-06T23:37:43.008Z,-9.69
2022-12-06T23:43:05.109Z,-9.61
2022-12-06T23:48:27.219Z,-9.82
2022-12-06T23:53:54.170Z,-9.77
2022-12-06T23:59:17.478Z,-9.68
